sensor_id;sensor_type;location;lat;lon;timestamp;P1;durP1;ratioP1;P2;durP2;ratioP2
42964;SDS011;28604;51.204;22.552;2023-04-16T00:00:50;8.88;;;6.63;;
42964;SDS011;28604;51.204;22.552;2023-04-16T00:03:30;8.00;;;6.88;;
42964;SDS011;28604;51.204;22.552;2023-04-16T00:05:56;7.70;;;6.55;;
42964;SDS011;28604;51.204;22.552;2023-04-16T00:08:22;8.48;;;6.38;;
42964;SDS011;28604;51.204;22.552;2023-04-16T00:10:51;9.35;;;7.03;;
42964;SDS011;28604;51.204;22.552;2023-04-16T00:13:18;7.97;;;6.35;;
42964;SDS011;28604;51.204;22.552;2023-04-16T00:15:44;6.93;;;6.32;;
42964;SDS011;28604;51.204;22.552;2023-04-16T00:18:10;12.65;;;7.03;;
42964;SDS011;28604;51.204;22.552;2023-04-16T00:20:36;13.13;;;6.82;;
42964;SDS011;28604;51.204;22.552;2023-04-16T00:23:02;12.55;;;6.72;;
42964;SDS011;28604;51.204;22.552;2023-04-16T00:25:27;8.20;;;6.35;;
42964;SDS011;28604;51.204;22.552;2023-04-16T00:27:53;10.07;;;7.20;;
42964;SDS011;28604;51.204;22.552;2023-04-16T00:30:21;10.35;;;6.45;;
42964;SDS011;28604;51.204;22.552;2023-04-16T00:32:47;9.73;;;7.30;;
42964;SDS011;28604;51.204;22.552;2023-04-16T00:35:13;9.05;;;7.20;;
42964;SDS011;28604;51.204;22.552;2023-04-16T00:37:39;8.63;;;7.20;;
42964;SDS011;28604;51.204;22.552;2023-04-16T00:40:05;12.90;;;8.10;;
42964;SDS011;28604;51.204;22.552;2023-04-16T00:42:34;9.60;;;8.30;;
42964;SDS011;28604;51.204;22.552;2023-04-16T00:45:01;10.75;;;8.50;;
42964;SDS011;28604;51.204;22.552;2023-04-16T00:47:27;10.82;;;8.23;;
42964;SDS011;28604;51.204;22.552;2023-04-16T00:49:53;10.32;;;8.30;;
42964;SDS011;28604;51.204;22.552;2023-04-16T00:52:19;13.70;;;9.30;;
42964;SDS011;28604;51.204;22.552;2023-04-16T00:54:45;9.50;;;8.48;;
42964;SDS011;28604;51.204;22.552;2023-04-16T00:57:12;11.80;;;8.73;;
42964;SDS011;28604;51.204;22.552;2023-04-16T00:59:39;10.25;;;8.65;;
42964;SDS011;28604;51.204;22.552;2023-04-16T01:02:06;14.13;;;10.27;;
42964;SDS011;28604;51.204;22.552;2023-04-16T01:04:32;12.05;;;9.40;;
42964;SDS011;28604;51.204;22.552;2023-04-16T01:06:59;10.13;;;8.93;;
42964;SDS011;28604;51.204;22.552;2023-04-16T01:09:25;11.38;;;9.45;;
42964;SDS011;28604;51.204;22.552;2023-04-16T01:11:51;10.52;;;9.52;;
42964;SDS011;28604;51.204;22.552;2023-04-16T01:14:17;13.55;;;9.25;;
42964;SDS011;28604;51.204;22.552;2023-04-16T01:16:43;10.68;;;8.98;;
42964;SDS011;28604;51.204;22.552;2023-04-16T01:19:09;10.35;;;8.80;;
42964;SDS011;28604;51.204;22.552;2023-04-16T01:21:35;10.20;;;8.65;;
42964;SDS011;28604;51.204;22.552;2023-04-16T01:24:02;11.85;;;10.25;;
42964;SDS011;28604;51.204;22.552;2023-04-16T01:26:29;18.50;;;10.50;;
42964;SDS011;28604;51.204;22.552;2023-04-16T01:28:56;12.70;;;10.18;;
42964;SDS011;28604;51.204;22.552;2023-04-16T01:31:23;12.00;;;9.27;;
42964;SDS011;28604;51.204;22.552;2023-04-16T01:33:56;13.15;;;10.18;;
42964;SDS011;28604;51.204;22.552;2023-04-16T01:36:22;12.50;;;10.05;;
42964;SDS011;28604;51.204;22.552;2023-04-16T01:38:48;13.20;;;10.48;;
42964;SDS011;28604;51.204;22.552;2023-04-16T01:41:14;14.07;;;11.05;;
42964;SDS011;28604;51.204;22.552;2023-04-16T01:43:40;12.52;;;9.68;;
42964;SDS011;28604;51.204;22.552;2023-04-16T01:46:11;11.98;;;9.55;;
42964;SDS011;28604;51.204;22.552;2023-04-16T01:48:58;13.23;;;9.57;;
42964;SDS011;28604;51.204;22.552;2023-04-16T01:51:25;13.60;;;11.40;;
42964;SDS011;28604;51.204;22.552;2023-04-16T01:53:51;12.38;;;10.82;;
42964;SDS011;28604;51.204;22.552;2023-04-16T01:56:17;12.68;;;10.52;;
42964;SDS011;28604;51.204;22.552;2023-04-16T01:58:43;12.65;;;11.27;;
42964;SDS011;28604;51.204;22.552;2023-04-16T02:01:11;11.80;;;10.32;;
42964;SDS011;28604;51.204;22.552;2023-04-16T02:03:39;17.08;;;10.82;;
42964;SDS011;28604;51.204;22.552;2023-04-16T02:06:05;12.43;;;9.07;;
42964;SDS011;28604;51.204;22.552;2023-04-16T02:08:31;14.63;;;10.68;;
42964;SDS011;28604;51.204;22.552;2023-04-16T02:10:57;13.55;;;10.07;;
42964;SDS011;28604;51.204;22.552;2023-04-16T02:13:25;14.32;;;10.88;;
42964;SDS011;28604;51.204;22.552;2023-04-16T02:15:51;13.30;;;10.15;;
42964;SDS011;28604;51.204;22.552;2023-04-16T02:18:26;13.40;;;10.77;;
42964;SDS011;28604;51.204;22.552;2023-04-16T02:20:52;11.55;;;10.35;;
42964;SDS011;28604;51.204;22.552;2023-04-16T02:23:19;10.07;;;9.07;;
42964;SDS011;28604;51.204;22.552;2023-04-16T02:25:45;11.38;;;10.13;;
42964;SDS011;28604;51.204;22.552;2023-04-16T02:28:13;10.80;;;9.48;;
42964;SDS011;28604;51.204;22.552;2023-04-16T02:30:41;12.40;;;10.10;;
42964;SDS011;28604;51.204;22.552;2023-04-16T02:33:09;11.65;;;10.18;;
42964;SDS011;28604;51.204;22.552;2023-04-16T02:35:38;14.88;;;10.18;;
42964;SDS011;28604;51.204;22.552;2023-04-16T02:38:05;14.48;;;10.85;;
42964;SDS011;28604;51.204;22.552;2023-04-16T02:40:33;11.95;;;10.23;;
42964;SDS011;28604;51.204;22.552;2023-04-16T02:42:59;11.95;;;10.75;;
42964;SDS011;28604;51.204;22.552;2023-04-16T02:45:26;12.90;;;10.70;;
42964;SDS011;28604;51.204;22.552;2023-04-16T02:47:52;11.13;;;9.30;;
42964;SDS011;28604;51.204;22.552;2023-04-16T02:50:18;12.90;;;10.20;;
42964;SDS011;28604;51.204;22.552;2023-04-16T02:52:43;11.32;;;10.13;;
42964;SDS011;28604;51.204;22.552;2023-04-16T02:55:10;14.35;;;9.90;;
42964;SDS011;28604;51.204;22.552;2023-04-16T02:57:36;12.88;;;10.18;;
42964;SDS011;28604;51.204;22.552;2023-04-16T03:00:02;12.45;;;9.93;;
42964;SDS011;28604;51.204;22.552;2023-04-16T03:02:31;13.23;;;10.32;;
42964;SDS011;28604;51.204;22.552;2023-04-16T03:04:57;14.52;;;9.75;;
42964;SDS011;28604;51.204;22.552;2023-04-16T03:07:23;12.95;;;9.60;;
42964;SDS011;28604;51.204;22.552;2023-04-16T03:09:49;11.50;;;9.95;;
42964;SDS011;28604;51.204;22.552;2023-04-16T03:12:15;13.02;;;10.60;;
42964;SDS011;28604;51.204;22.552;2023-04-16T03:14:41;14.15;;;9.75;;
42964;SDS011;28604;51.204;22.552;2023-04-16T03:17:07;11.43;;;9.77;;
42964;SDS011;28604;51.204;22.552;2023-04-16T03:19:33;9.98;;;8.95;;
42964;SDS011;28604;51.204;22.552;2023-04-16T03:21:59;12.00;;;9.98;;
42964;SDS011;28604;51.204;22.552;2023-04-16T03:24:25;11.38;;;9.73;;
42964;SDS011;28604;51.204;22.552;2023-04-16T03:26:52;14.70;;;10.20;;
42964;SDS011;28604;51.204;22.552;2023-04-16T03:29:21;13.95;;;10.77;;
42964;SDS011;28604;51.204;22.552;2023-04-16T03:31:47;12.35;;;10.13;;
42964;SDS011;28604;51.204;22.552;2023-04-16T03:34:14;11.75;;;10.27;;
42964;SDS011;28604;51.204;22.552;2023-04-16T03:36:40;11.93;;;10.65;;
42964;SDS011;28604;51.204;22.552;2023-04-16T03:39:06;14.70;;;11.35;;
42964;SDS011;28604;51.204;22.552;2023-04-16T03:41:32;12.68;;;10.60;;
42964;SDS011;28604;51.204;22.552;2023-04-16T03:43:59;12.45;;;10.77;;
42964;SDS011;28604;51.204;22.552;2023-04-16T03:46:25;12.25;;;9.90;;
42964;SDS011;28604;51.204;22.552;2023-04-16T03:48:51;16.50;;;12.00;;
42964;SDS011;28604;51.204;22.552;2023-04-16T03:51:17;14.60;;;12.63;;
42964;SDS011;28604;51.204;22.552;2023-04-16T03:53:43;18.80;;;12.73;;
42964;SDS011;28604;51.204;22.552;2023-04-16T03:56:09;11.40;;;10.20;;
42964;SDS011;28604;51.204;22.552;2023-04-16T03:58:35;13.43;;;11.68;;
42964;SDS011;28604;51.204;22.552;2023-04-16T04:01:01;15.65;;;11.38;;
42964;SDS011;28604;51.204;22.552;2023-04-16T04:03:28;15.55;;;11.07;;
42964;SDS011;28604;51.204;22.552;2023-04-16T04:05:54;11.25;;;10.05;;
42964;SDS011;28604;51.204;22.552;2023-04-16T04:10:53;12.27;;;10.20;;
42964;SDS011;28604;51.204;22.552;2023-04-16T04:13:21;11.40;;;9.68;;
42964;SDS011;28604;51.204;22.552;2023-04-16T04:15:48;13.13;;;10.85;;
42964;SDS011;28604;51.204;22.552;2023-04-16T04:18:14;16.63;;;11.27;;
42964;SDS011;28604;51.204;22.552;2023-04-16T04:20:43;14.25;;;11.20;;
42964;SDS011;28604;51.204;22.552;2023-04-16T04:23:12;14.15;;;11.30;;
42964;SDS011;28604;51.204;22.552;2023-04-16T04:25:38;16.98;;;11.77;;
42964;SDS011;28604;51.204;22.552;2023-04-16T04:28:04;20.98;;;15.15;;
42964;SDS011;28604;51.204;22.552;2023-04-16T04:30:30;19.30;;;13.18;;
42964;SDS011;28604;51.204;22.552;2023-04-16T04:32:57;17.65;;;13.68;;
42964;SDS011;28604;51.204;22.552;2023-04-16T04:35:22;17.98;;;13.02;;
42964;SDS011;28604;51.204;22.552;2023-04-16T04:37:49;20.17;;;13.88;;
42964;SDS011;28604;51.204;22.552;2023-04-16T04:40:17;17.00;;;13.10;;
42964;SDS011;28604;51.204;22.552;2023-04-16T04:42:44;20.50;;;14.48;;
42964;SDS011;28604;51.204;22.552;2023-04-16T04:45:10;18.85;;;14.13;;
42964;SDS011;28604;51.204;22.552;2023-04-16T04:47:36;15.98;;;14.23;;
42964;SDS011;28604;51.204;22.552;2023-04-16T04:50:02;17.02;;;14.05;;
42964;SDS011;28604;51.204;22.552;2023-04-16T04:52:31;16.05;;;13.68;;
42964;SDS011;28604;51.204;22.552;2023-04-16T04:54:56;15.95;;;13.32;;
42964;SDS011;28604;51.204;22.552;2023-04-16T04:57:22;15.48;;;12.32;;
42964;SDS011;28604;51.204;22.552;2023-04-16T04:59:52;14.82;;;12.25;;
42964;SDS011;28604;51.204;22.552;2023-04-16T05:02:18;18.45;;;13.55;;
42964;SDS011;28604;51.204;22.552;2023-04-16T05:04:44;19.02;;;14.63;;
42964;SDS011;28604;51.204;22.552;2023-04-16T05:07:10;19.75;;;13.25;;
42964;SDS011;28604;51.204;22.552;2023-04-16T05:09:35;15.20;;;12.25;;
42964;SDS011;28604;51.204;22.552;2023-04-16T05:12:01;16.50;;;13.00;;
42964;SDS011;28604;51.204;22.552;2023-04-16T05:14:28;19.13;;;13.25;;
42964;SDS011;28604;51.204;22.552;2023-04-16T05:16:54;14.82;;;12.38;;
42964;SDS011;28604;51.204;22.552;2023-04-16T05:19:20;17.35;;;13.50;;
42964;SDS011;28604;51.204;22.552;2023-04-16T05:21:46;19.35;;;15.23;;
42964;SDS011;28604;51.204;22.552;2023-04-16T05:24:12;17.25;;;14.10;;
42964;SDS011;28604;51.204;22.552;2023-04-16T05:26:38;16.50;;;13.60;;
42964;SDS011;28604;51.204;22.552;2023-04-16T05:29:04;17.27;;;14.63;;
42964;SDS011;28604;51.204;22.552;2023-04-16T05:31:30;16.73;;;14.35;;
42964;SDS011;28604;51.204;22.552;2023-04-16T05:33:56;16.90;;;14.20;;
42964;SDS011;28604;51.204;22.552;2023-04-16T05:36:22;17.85;;;14.30;;
42964;SDS011;28604;51.204;22.552;2023-04-16T05:38:47;18.38;;;14.63;;
42964;SDS011;28604;51.204;22.552;2023-04-16T05:41:13;16.38;;;13.57;;
42964;SDS011;28604;51.204;22.552;2023-04-16T05:43:39;16.80;;;12.52;;
42964;SDS011;28604;51.204;22.552;2023-04-16T05:46:06;17.92;;;13.55;;
42964;SDS011;28604;51.204;22.552;2023-04-16T05:48:31;20.58;;;14.07;;
42964;SDS011;28604;51.204;22.552;2023-04-16T05:50:57;15.82;;;12.45;;
42964;SDS011;28604;51.204;22.552;2023-04-16T05:53:23;15.25;;;13.60;;
42964;SDS011;28604;51.204;22.552;2023-04-16T05:55:49;18.50;;;13.27;;
42964;SDS011;28604;51.204;22.552;2023-04-16T05:58:15;16.05;;;13.30;;
42964;SDS011;28604;51.204;22.552;2023-04-16T06:00:41;14.05;;;11.75;;
42964;SDS011;28604;51.204;22.552;2023-04-16T06:03:07;15.65;;;12.27;;
42964;SDS011;28604;51.204;22.552;2023-04-16T06:05:33;13.98;;;11.40;;
42964;SDS011;28604;51.204;22.552;2023-04-16T06:07:59;17.52;;;11.90;;
42964;SDS011;28604;51.204;22.552;2023-04-16T06:10:25;14.73;;;10.55;;
42964;SDS011;28604;51.204;22.552;2023-04-16T06:12:51;11.82;;;10.43;;
42964;SDS011;28604;51.204;22.552;2023-04-16T06:15:17;13.52;;;11.52;;
42964;SDS011;28604;51.204;22.552;2023-04-16T06:17:43;13.60;;;11.45;;
42964;SDS011;28604;51.204;22.552;2023-04-16T06:20:09;17.67;;;11.98;;
42964;SDS011;28604;51.204;22.552;2023-04-16T06:22:35;20.02;;;12.27;;
42964;SDS011;28604;51.204;22.552;2023-04-16T06:25:02;16.52;;;12.38;;
42964;SDS011;28604;51.204;22.552;2023-04-16T06:27:29;15.35;;;11.52;;
42964;SDS011;28604;51.204;22.552;2023-04-16T06:29:56;16.77;;;12.30;;
42964;SDS011;28604;51.204;22.552;2023-04-16T06:32:22;15.27;;;12.30;;
42964;SDS011;28604;51.204;22.552;2023-04-16T06:34:48;31.67;;;22.35;;
42964;SDS011;28604;51.204;22.552;2023-04-16T06:37:14;20.85;;;13.55;;
42964;SDS011;28604;51.204;22.552;2023-04-16T06:39:40;12.02;;;10.55;;
42964;SDS011;28604;51.204;22.552;2023-04-16T06:42:06;12.30;;;10.07;;
42964;SDS011;28604;51.204;22.552;2023-04-16T06:44:32;11.15;;;10.02;;
42964;SDS011;28604;51.204;22.552;2023-04-16T06:46:59;11.93;;;9.23;;
42964;SDS011;28604;51.204;22.552;2023-04-16T06:49:25;14.80;;;12.35;;
42964;SDS011;28604;51.204;22.552;2023-04-16T06:51:51;12.20;;;9.38;;
42964;SDS011;28604;51.204;22.552;2023-04-16T06:54:17;9.73;;;8.73;;
42964;SDS011;28604;51.204;22.552;2023-04-16T06:56:44;12.57;;;8.30;;
42964;SDS011;28604;51.204;22.552;2023-04-16T06:59:10;9.60;;;8.52;;
42964;SDS011;28604;51.204;22.552;2023-04-16T07:01:35;7.90;;;7.18;;
42964;SDS011;28604;51.204;22.552;2023-04-16T07:09:47;7.22;;;6.47;;
42964;SDS011;28604;51.204;22.552;2023-04-16T07:12:13;7.78;;;7.00;;
42964;SDS011;28604;51.204;22.552;2023-04-16T07:14:38;9.75;;;8.15;;
42964;SDS011;28604;51.204;22.552;2023-04-16T07:17:05;9.85;;;7.15;;
42964;SDS011;28604;51.204;22.552;2023-04-16T07:19:31;6.68;;;6.07;;
42964;SDS011;28604;51.204;22.552;2023-04-16T07:21:58;6.53;;;5.85;;
42964;SDS011;28604;51.204;22.552;2023-04-16T07:24:24;6.28;;;5.70;;
42964;SDS011;28604;51.204;22.552;2023-04-16T07:26:50;6.35;;;5.45;;
42964;SDS011;28604;51.204;22.552;2023-04-16T07:29:16;7.43;;;5.63;;
42964;SDS011;28604;51.204;22.552;2023-04-16T07:31:43;6.00;;;5.47;;
42964;SDS011;28604;51.204;22.552;2023-04-16T07:34:09;4.68;;;4.40;;
42964;SDS011;28604;51.204;22.552;2023-04-16T07:36:35;5.30;;;4.82;;
42964;SDS011;28604;51.204;22.552;2023-04-16T07:39:01;5.45;;;4.85;;
42964;SDS011;28604;51.204;22.552;2023-04-16T07:41:28;6.00;;;5.50;;
42964;SDS011;28604;51.204;22.552;2023-04-16T07:43:54;7.35;;;5.43;;
42964;SDS011;28604;51.204;22.552;2023-04-16T07:46:20;5.57;;;5.15;;
42964;SDS011;28604;51.204;22.552;2023-04-16T07:48:46;5.25;;;4.68;;
42964;SDS011;28604;51.204;22.552;2023-04-16T07:51:12;5.25;;;4.95;;
42964;SDS011;28604;51.204;22.552;2023-04-16T07:53:38;6.43;;;5.85;;
42964;SDS011;28604;51.204;22.552;2023-04-16T07:56:05;5.60;;;5.10;;
42964;SDS011;28604;51.204;22.552;2023-04-16T07:58:31;5.07;;;4.72;;
42964;SDS011;28604;51.204;22.552;2023-04-16T08:00:57;5.88;;;5.35;;
42964;SDS011;28604;51.204;22.552;2023-04-16T08:03:23;5.80;;;5.40;;
42964;SDS011;28604;51.204;22.552;2023-04-16T08:05:49;5.38;;;4.97;;
42964;SDS011;28604;51.204;22.552;2023-04-16T08:08:15;5.90;;;5.40;;
42964;SDS011;28604;51.204;22.552;2023-04-16T08:10:41;4.93;;;4.53;;
42964;SDS011;28604;51.204;22.552;2023-04-16T08:13:07;5.55;;;5.05;;
42964;SDS011;28604;51.204;22.552;2023-04-16T08:15:33;6.20;;;5.25;;
42964;SDS011;28604;51.204;22.552;2023-04-16T08:17:59;4.65;;;4.32;;
42964;SDS011;28604;51.204;22.552;2023-04-16T08:20:25;6.80;;;5.00;;
42964;SDS011;28604;51.204;22.552;2023-04-16T08:22:52;5.07;;;4.68;;
42964;SDS011;28604;51.204;22.552;2023-04-16T08:25:19;5.22;;;4.75;;
42964;SDS011;28604;51.204;22.552;2023-04-16T08:27:45;5.22;;;4.82;;
42964;SDS011;28604;51.204;22.552;2023-04-16T08:30:11;6.00;;;5.47;;
42964;SDS011;28604;51.204;22.552;2023-04-16T08:32:37;6.95;;;6.35;;
42964;SDS011;28604;51.204;22.552;2023-04-16T08:35:03;5.68;;;5.28;;
42964;SDS011;28604;51.204;22.552;2023-04-16T08:37:29;6.43;;;5.93;;
42964;SDS011;28604;51.204;22.552;2023-04-16T08:39:55;7.03;;;6.32;;
42964;SDS011;28604;51.204;22.552;2023-04-16T08:42:31;6.18;;;5.63;;
42964;SDS011;28604;51.204;22.552;2023-04-16T08:45:11;6.50;;;5.32;;
42964;SDS011;28604;51.204;22.552;2023-04-16T08:47:46;6.32;;;5.55;;
42964;SDS011;28604;51.204;22.552;2023-04-16T08:50:14;6.18;;;5.68;;
42964;SDS011;28604;51.204;22.552;2023-04-16T08:52:51;8.25;;;6.38;;
42964;SDS011;28604;51.204;22.552;2023-04-16T08:55:22;5.68;;;5.10;;
42964;SDS011;28604;51.204;22.552;2023-04-16T08:57:53;6.00;;;5.50;;
42964;SDS011;28604;51.204;22.552;2023-04-16T09:00:23;5.82;;;4.97;;
42964;SDS011;28604;51.204;22.552;2023-04-16T09:02:49;5.82;;;5.30;;
42964;SDS011;28604;51.204;22.552;2023-04-16T09:05:16;5.78;;;5.28;;
42964;SDS011;28604;51.204;22.552;2023-04-16T09:07:46;5.68;;;5.18;;
42964;SDS011;28604;51.204;22.552;2023-04-16T09:10:13;5.20;;;4.80;;
42964;SDS011;28604;51.204;22.552;2023-04-16T09:12:40;5.03;;;4.53;;
42964;SDS011;28604;51.204;22.552;2023-04-16T09:15:08;4.70;;;4.40;;
42964;SDS011;28604;51.204;22.552;2023-04-16T09:17:35;4.70;;;4.32;;
42964;SDS011;28604;51.204;22.552;2023-04-16T09:20:02;5.03;;;4.63;;
42964;SDS011;28604;51.204;22.552;2023-04-16T09:22:35;4.38;;;4.18;;
42964;SDS011;28604;51.204;22.552;2023-04-16T09:25:01;4.50;;;4.13;;
42964;SDS011;28604;51.204;22.552;2023-04-16T09:27:27;4.53;;;4.22;;
42964;SDS011;28604;51.204;22.552;2023-04-16T09:29:55;4.95;;;4.65;;
42964;SDS011;28604;51.204;22.552;2023-04-16T09:32:24;4.43;;;4.18;;
42964;SDS011;28604;51.204;22.552;2023-04-16T09:34:58;5.07;;;4.13;;
42964;SDS011;28604;51.204;22.552;2023-04-16T09:37:26;5.70;;;4.47;;
42964;SDS011;28604;51.204;22.552;2023-04-16T09:40:00;3.83;;;3.50;;
42964;SDS011;28604;51.204;22.552;2023-04-16T09:42:31;4.47;;;4.07;;
42964;SDS011;28604;51.204;22.552;2023-04-16T09:44:58;4.93;;;4.53;;
42964;SDS011;28604;51.204;22.552;2023-04-16T09:47:25;3.95;;;3.65;;
42964;SDS011;28604;51.204;22.552;2023-04-16T09:50:02;5.47;;;4.78;;
42964;SDS011;28604;51.204;22.552;2023-04-16T09:52:28;5.88;;;4.35;;
42964;SDS011;28604;51.204;22.552;2023-04-16T09:54:54;3.55;;;3.35;;
42964;SDS011;28604;51.204;22.552;2023-04-16T09:57:21;3.40;;;3.15;;
42964;SDS011;28604;51.204;22.552;2023-04-16T09:59:54;4.13;;;3.80;;
42964;SDS011;28604;51.204;22.552;2023-04-16T10:02:25;3.53;;;3.33;;
42964;SDS011;28604;51.204;22.552;2023-04-16T10:04:53;2.92;;;2.78;;
42964;SDS011;28604;51.204;22.552;2023-04-16T10:07:19;3.17;;;2.97;;
42964;SDS011;28604;51.204;22.552;2023-04-16T10:09:46;4.05;;;3.75;;
42964;SDS011;28604;51.204;22.552;2023-04-16T10:12:12;3.03;;;2.83;;
42964;SDS011;28604;51.204;22.552;2023-04-16T10:14:40;3.53;;;3.33;;
42964;SDS011;28604;51.204;22.552;2023-04-16T10:17:07;3.03;;;2.90;;
42964;SDS011;28604;51.204;22.552;2023-04-16T10:19:33;3.40;;;3.20;;
42964;SDS011;28604;51.204;22.552;2023-04-16T10:22:00;2.72;;;2.53;;
42964;SDS011;28604;51.204;22.552;2023-04-16T10:24:27;4.75;;;3.45;;
42964;SDS011;28604;51.204;22.552;2023-04-16T10:26:54;4.03;;;2.42;;
42964;SDS011;28604;51.204;22.552;2023-04-16T10:29:20;5.35;;;3.03;;
42964;SDS011;28604;51.204;22.552;2023-04-16T10:31:47;1.73;;;1.73;;
42964;SDS011;28604;51.204;22.552;2023-04-16T10:34:14;5.40;;;2.53;;
42964;SDS011;28604;51.204;22.552;2023-04-16T10:36:41;2.58;;;2.47;;
42964;SDS011;28604;51.204;22.552;2023-04-16T10:39:11;2.63;;;2.42;;
42964;SDS011;28604;51.204;22.552;2023-04-16T10:41:38;3.40;;;3.20;;
42964;SDS011;28604;51.204;22.552;2023-04-16T10:44:05;2.60;;;2.40;;
42964;SDS011;28604;51.204;22.552;2023-04-16T10:46:36;3.08;;;2.85;;
42964;SDS011;28604;51.204;22.552;2023-04-16T10:49:38;3.10;;;2.83;;
42964;SDS011;28604;51.204;22.552;2023-04-16T10:52:00;2.80;;;2.63;;
42964;SDS011;28604;51.204;22.552;2023-04-16T10:54:34;3.85;;;3.50;;
42964;SDS011;28604;51.204;22.552;2023-04-16T10:57:04;3.55;;;3.08;;
42964;SDS011;28604;51.204;22.552;2023-04-16T10:59:32;3.17;;;2.97;;
42964;SDS011;28604;51.204;22.552;2023-04-16T11:02:01;4.00;;;3.70;;
42964;SDS011;28604;51.204;22.552;2023-04-16T11:04:37;3.55;;;3.28;;
42964;SDS011;28604;51.204;22.552;2023-04-16T11:15:07;8.45;;;5.35;;
42964;SDS011;28604;51.204;22.552;2023-04-16T11:22:53;5.63;;;5.10;;
42964;SDS011;28604;51.204;22.552;2023-04-16T11:25:24;5.35;;;4.95;;
42964;SDS011;28604;51.204;22.552;2023-04-16T11:27:54;3.85;;;3.55;;
42964;SDS011;28604;51.204;22.552;2023-04-16T11:30:28;4.75;;;4.35;;
42964;SDS011;28604;51.204;22.552;2023-04-16T11:32:55;6.68;;;4.50;;
42964;SDS011;28604;51.204;22.552;2023-04-16T11:35:21;4.53;;;4.13;;
42964;SDS011;28604;51.204;22.552;2023-04-16T11:37:47;5.20;;;4.47;;
42964;SDS011;28604;51.204;22.552;2023-04-16T11:40:13;5.35;;;4.85;;
42964;SDS011;28604;51.204;22.552;2023-04-16T11:42:39;5.30;;;4.80;;
42964;SDS011;28604;51.204;22.552;2023-04-16T11:45:09;4.80;;;4.43;;
42964;SDS011;28604;51.204;22.552;2023-04-16T11:47:46;5.65;;;5.15;;
42964;SDS011;28604;51.204;22.552;2023-04-16T11:50:26;5.63;;;5.05;;
42964;SDS011;28604;51.204;22.552;2023-04-16T11:52:53;7.22;;;6.10;;
42964;SDS011;28604;51.204;22.552;2023-04-16T11:55:22;7.80;;;5.95;;
42964;SDS011;28604;51.204;22.552;2023-04-16T11:57:48;6.93;;;6.10;;
42964;SDS011;28604;51.204;22.552;2023-04-16T12:00:15;11.02;;;7.15;;
42964;SDS011;28604;51.204;22.552;2023-04-16T12:02:45;7.35;;;5.45;;
42964;SDS011;28604;51.204;22.552;2023-04-16T12:05:34;6.95;;;6.30;;
42964;SDS011;28604;51.204;22.552;2023-04-16T12:08:03;7.22;;;6.40;;
42964;SDS011;28604;51.204;22.552;2023-04-16T12:10:31;9.50;;;6.55;;
42964;SDS011;28604;51.204;22.552;2023-04-16T12:13:11;10.02;;;8.00;;
42964;SDS011;28604;51.204;22.552;2023-04-16T12:15:54;7.25;;;6.55;;
42964;SDS011;28604;51.204;22.552;2023-04-16T12:18:24;6.95;;;6.25;;
42964;SDS011;28604;51.204;22.552;2023-04-16T12:20:54;11.13;;;6.32;;
42964;SDS011;28604;51.204;22.552;2023-04-16T12:23:23;8.88;;;7.43;;
42964;SDS011;28604;51.204;22.552;2023-04-16T12:25:54;7.45;;;6.65;;
42964;SDS011;28604;51.204;22.552;2023-04-16T12:28:33;5.63;;;5.18;;
42964;SDS011;28604;51.204;22.552;2023-04-16T12:31:01;6.55;;;5.95;;
42964;SDS011;28604;51.204;22.552;2023-04-16T12:33:27;6.63;;;6.03;;
42964;SDS011;28604;51.204;22.552;2023-04-16T12:35:54;5.75;;;5.18;;
42964;SDS011;28604;51.204;22.552;2023-04-16T12:38:19;6.80;;;6.20;;
42964;SDS011;28604;51.204;22.552;2023-04-16T12:40:46;7.63;;;5.57;;
42964;SDS011;28604;51.204;22.552;2023-04-16T12:43:11;6.45;;;5.85;;
42964;SDS011;28604;51.204;22.552;2023-04-16T12:45:38;9.60;;;5.80;;
42964;SDS011;28604;51.204;22.552;2023-04-16T12:48:05;7.97;;;5.55;;
42964;SDS011;28604;51.204;22.552;2023-04-16T12:50:31;5.40;;;4.88;;
42964;SDS011;28604;51.204;22.552;2023-04-16T12:52:57;4.90;;;4.50;;
42964;SDS011;28604;51.204;22.552;2023-04-16T12:55:24;4.93;;;4.53;;
42964;SDS011;28604;51.204;22.552;2023-04-16T12:57:50;7.40;;;5.30;;
42964;SDS011;28604;51.204;22.552;2023-04-16T13:00:20;9.63;;;6.85;;
42964;SDS011;28604;51.204;22.552;2023-04-16T13:02:46;6.82;;;6.22;;
42964;SDS011;28604;51.204;22.552;2023-04-16T13:05:12;7.10;;;6.47;;
42964;SDS011;28604;51.204;22.552;2023-04-16T13:07:42;6.43;;;5.88;;
42964;SDS011;28604;51.204;22.552;2023-04-16T13:10:08;5.57;;;5.15;;
42964;SDS011;28604;51.204;22.552;2023-04-16T13:12:34;5.50;;;5.10;;
42964;SDS011;28604;51.204;22.552;2023-04-16T13:15:01;12.43;;;5.38;;
42964;SDS011;28604;51.204;22.552;2023-04-16T13:17:27;6.00;;;5.40;;
42964;SDS011;28604;51.204;22.552;2023-04-16T13:19:53;5.55;;;5.07;;
42964;SDS011;28604;51.204;22.552;2023-04-16T13:22:19;5.88;;;5.28;;
42964;SDS011;28604;51.204;22.552;2023-04-16T13:24:45;4.95;;;4.55;;
42964;SDS011;28604;51.204;22.552;2023-04-16T13:27:11;6.78;;;6.13;;
42964;SDS011;28604;51.204;22.552;2023-04-16T13:29:40;5.90;;;5.40;;
42964;SDS011;28604;51.204;22.552;2023-04-16T13:32:06;5.43;;;4.50;;
42964;SDS011;28604;51.204;22.552;2023-04-16T13:34:32;4.78;;;4.30;;
42964;SDS011;28604;51.204;22.552;2023-04-16T13:36:58;3.97;;;3.67;;
42964;SDS011;28604;51.204;22.552;2023-04-16T13:39:24;5.15;;;4.32;;
42964;SDS011;28604;51.204;22.552;2023-04-16T13:41:50;5.93;;;4.90;;
42964;SDS011;28604;51.204;22.552;2023-04-16T13:44:16;6.05;;;5.43;;
42964;SDS011;28604;51.204;22.552;2023-04-16T13:46:42;5.30;;;4.90;;
42964;SDS011;28604;51.204;22.552;2023-04-16T13:49:12;6.93;;;4.65;;
42964;SDS011;28604;51.204;22.552;2023-04-16T13:51:38;5.82;;;4.65;;
42964;SDS011;28604;51.204;22.552;2023-04-16T13:54:04;4.18;;;3.88;;
42964;SDS011;28604;51.204;22.552;2023-04-16T13:56:30;4.15;;;3.65;;
42964;SDS011;28604;51.204;22.552;2023-04-16T13:58:56;2.67;;;2.40;;
42964;SDS011;28604;51.204;22.552;2023-04-16T14:01:22;2.72;;;2.53;;
42964;SDS011;28604;51.204;22.552;2023-04-16T14:03:48;3.05;;;2.85;;
42964;SDS011;28604;51.204;22.552;2023-04-16T14:06:14;4.85;;;2.45;;
42964;SDS011;28604;51.204;22.552;2023-04-16T14:08:42;2.65;;;2.33;;
42964;SDS011;28604;51.204;22.552;2023-04-16T14:11:09;2.30;;;2.15;;
42964;SDS011;28604;51.204;22.552;2023-04-16T14:13:36;3.47;;;3.20;;
42964;SDS011;28604;51.204;22.552;2023-04-16T14:16:02;2.95;;;2.70;;
42964;SDS011;28604;51.204;22.552;2023-04-16T14:18:28;4.53;;;3.00;;
42964;SDS011;28604;51.204;22.552;2023-04-16T14:20:54;4.05;;;3.65;;
42964;SDS011;28604;51.204;22.552;2023-04-16T14:23:20;3.45;;;3.25;;
42964;SDS011;28604;51.204;22.552;2023-04-16T14:25:46;3.35;;;3.15;;
42964;SDS011;28604;51.204;22.552;2023-04-16T14:28:12;3.70;;;3.40;;
42964;SDS011;28604;51.204;22.552;2023-04-16T14:30:38;4.88;;;4.20;;
42964;SDS011;28604;51.204;22.552;2023-04-16T14:33:04;5.13;;;3.33;;
42964;SDS011;28604;51.204;22.552;2023-04-16T14:35:31;3.22;;;3.03;;
42964;SDS011;28604;51.204;22.552;2023-04-16T14:37:58;2.90;;;2.63;;
42964;SDS011;28604;51.204;22.552;2023-04-16T14:40:25;4.10;;;3.80;;
42964;SDS011;28604;51.204;22.552;2023-04-16T14:42:51;3.47;;;3.17;;
42964;SDS011;28604;51.204;22.552;2023-04-16T14:45:17;3.40;;;3.10;;